sensor_id;sensor_type;location;lat;lon;timestamp;P1;P2;P0
77515;PMS5003;66627;29.424;-98.496;2023-11-19T00:01:47;30;30;
77515;PMS5003;66627;29.424;-98.496;2023-11-19T00:04:12;28;26;
77515;PMS5003;66627;29.424;-98.496;2023-11-19T00:06:38;29;29;
77515;PMS5003;66627;29.424;-98.496;2023-11-19T00:09:03;27;26;
77515;PMS5003;66627;29.424;-98.496;2023-11-19T00:11:29;28;27;
77515;PMS5003;66627;29.424;-98.496;2023-11-19T00:13:56;34;31;
77515;PMS5003;66627;29.424;-98.496;2023-11-19T00:16:21;33;30;
77515;PMS5003;66627;29.424;-98.496;2023-11-19T00:18:46;30;28;
77515;PMS5003;66627;29.424;-98.496;2023-11-19T00:21:13;34;30;
77515;PMS5003;66627;29.424;-98.496;2023-11-19T00:23:37;30;30;
77515;PMS5003;66627;29.424;-98.496;2023-11-19T00:26:04;33;31;
77515;PMS5003;66627;29.424;-98.496;2023-11-19T00:28:29;35;33;
77515;PMS5003;66627;29.424;-98.496;2023-11-19T00:30:54;32;32;
77515;PMS5003;66627;29.424;-98.496;2023-11-19T00:33:19;36;31;
77515;PMS5003;66627;29.424;-98.496;2023-11-19T00:35:43;42;36;
77515;PMS5003;66627;29.424;-98.496;2023-11-19T00:38:08;33;32;
77515;PMS5003;66627;29.424;-98.496;2023-11-19T00:40:34;31;29;
77515;PMS5003;66627;29.424;-98.496;2023-11-19T00:42:59;39;34;
77515;PMS5003;66627;29.424;-98.496;2023-11-19T00:45:26;41;39;
77515;PMS5003;66627;29.424;-98.496;2023-11-19T00:47:51;38;37;
77515;PMS5003;66627;29.424;-98.496;2023-11-19T00:50:16;35;35;
77515;PMS5003;66627;29.424;-98.496;2023-11-19T00:52:41;33;32;
77515;PMS5003;66627;29.424;-98.496;2023-11-19T00:55:06;35;31;
77515;PMS5003;66627;29.424;-98.496;2023-11-19T00:57:31;34;31;
77515;PMS5003;66627;29.424;-98.496;2023-11-19T00:59:58;36;32;
77515;PMS5003;66627;29.424;-98.496;2023-11-19T01:02:25;35;33;
77515;PMS5003;66627;29.424;-98.496;2023-11-19T01:04:48;41;36;
77515;PMS5003;66627;29.424;-98.496;2023-11-19T01:07:14;35;35;
77515;PMS5003;66627;29.424;-98.496;2023-11-19T01:09:41;38;35;
77515;PMS5003;66627;29.424;-98.496;2023-11-19T01:12:05;35;33;
77515;PMS5003;66627;29.424;-98.496;2023-11-19T01:14:30;35;30;
77515;PMS5003;66627;29.424;-98.496;2023-11-19T01:16:55;32;29;
77515;PMS5003;66627;29.424;-98.496;2023-11-19T01:19:21;28;27;
77515;PMS5003;66627;29.424;-98.496;2023-11-19T01:21:46;31;28;
77515;PMS5003;66627;29.424;-98.496;2023-11-19T01:24:11;36;33;
77515;PMS5003;66627;29.424;-98.496;2023-11-19T01:26:37;36;32;
77515;PMS5003;66627;29.424;-98.496;2023-11-19T01:29:02;32;28;
77515;PMS5003;66627;29.424;-98.496;2023-11-19T01:31:29;32;30;
77515;PMS5003;66627;29.424;-98.496;2023-11-19T01:33:54;33;30;
77515;PMS5003;66627;29.424;-98.496;2023-11-19T01:36:19;39;35;
77515;PMS5003;66627;29.424;-98.496;2023-11-19T01:38:44;41;35;
77515;PMS5003;66627;29.424;-98.496;2023-11-19T01:41:10;36;34;
77515;PMS5003;66627;29.424;-98.496;2023-11-19T01:43:37;49;42;
77515;PMS5003;66627;29.424;-98.496;2023-11-19T01:46:00;38;35;
77515;PMS5003;66627;29.424;-98.496;2023-11-19T01:48:25;42;37;
77515;PMS5003;66627;29.424;-98.496;2023-11-19T01:50:51;44;39;
77515;PMS5003;66627;29.424;-98.496;2023-11-19T01:53:17;37;31;
77515;PMS5003;66627;29.424;-98.496;2023-11-19T01:55:43;30;26;
77515;PMS5003;66627;29.424;-98.496;2023-11-19T01:58:08;36;33;
77515;PMS5003;66627;29.424;-98.496;2023-11-19T02:00:34;34;29;
77515;PMS5003;66627;29.424;-98.496;2023-11-19T02:02:59;34;29;
77515;PMS5003;66627;29.424;-98.496;2023-11-19T02:05:26;28;27;
77515;PMS5003;66627;29.424;-98.496;2023-11-19T02:07:51;34;30;
77515;PMS5003;66627;29.424;-98.496;2023-11-19T02:10:16;31;28;
77515;PMS5003;66627;29.424;-98.496;2023-11-19T02:12:43;30;28;
77515;PMS5003;66627;29.424;-98.496;2023-11-19T02:15:07;35;32;
77515;PMS5003;66627;29.424;-98.496;2023-11-19T02:17:33;34;33;
77515;PMS5003;66627;29.424;-98.496;2023-11-19T02:19:58;29;29;
77515;PMS5003;66627;29.424;-98.496;2023-11-19T02:22:23;29;28;
77515;PMS5003;66627;29.424;-98.496;2023-11-19T02:24:51;38;35;
77515;PMS5003;66627;29.424;-98.496;2023-11-19T02:27:16;35;33;
77515;PMS5003;66627;29.424;-98.496;2023-11-19T02:29:39;33;30;
77515;PMS5003;66627;29.424;-98.496;2023-11-19T02:32:05;30;27;
77515;PMS5003;66627;29.424;-98.496;2023-11-19T02:34:29;34;33;
77515;PMS5003;66627;29.424;-98.496;2023-11-19T02:36:56;42;39;
77515;PMS5003;66627;29.424;-98.496;2023-11-19T02:39:22;35;33;
77515;PMS5003;66627;29.424;-98.496;2023-11-19T02:41:48;40;40;
77515;PMS5003;66627;29.424;-98.496;2023-11-19T02:44:12;32;32;
77515;PMS5003;66627;29.424;-98.496;2023-11-19T02:46:42;40;34;
77515;PMS5003;66627;29.424;-98.496;2023-11-19T02:49:02;31;28;
77515;PMS5003;66627;29.424;-98.496;2023-11-19T02:51:29;36;33;
77515;PMS5003;66627;29.424;-98.496;2023-11-19T02:53:56;28;26;
77515;PMS5003;66627;29.424;-98.496;2023-11-19T02:56:21;33;31;
77515;PMS5003;66627;29.424;-98.496;2023-11-19T02:58:46;31;31;
77515;PMS5003;66627;29.424;-98.496;2023-11-19T03:01:11;29;27;
77515;PMS5003;66627;29.424;-98.496;2023-11-19T03:03:35;32;32;
77515;PMS5003;66627;29.424;-98.496;2023-11-19T03:06:00;29;27;
77515;PMS5003;66627;29.424;-98.496;2023-11-19T03:08:26;37;32;
77515;PMS5003;66627;29.424;-98.496;2023-11-19T03:10:50;35;33;
77515;PMS5003;66627;29.424;-98.496;2023-11-19T03:13:17;31;29;
77515;PMS5003;66627;29.424;-98.496;2023-11-19T03:15:42;26;26;
77515;PMS5003;66627;29.424;-98.496;2023-11-19T03:18:08;32;31;
77515;PMS5003;66627;29.424;-98.496;2023-11-19T03:20:34;32;30;
77515;PMS5003;66627;29.424;-98.496;2023-11-19T03:23:00;30;29;
77515;PMS5003;66627;29.424;-98.496;2023-11-19T03:25:25;29;28;
77515;PMS5003;66627;29.424;-98.496;2023-11-19T03:27:49;36;30;
77515;PMS5003;66627;29.424;-98.496;2023-11-19T03:30:15;31;29;
77515;PMS5003;66627;29.424;-98.496;2023-11-19T03:32:40;23;23;
77515;PMS5003;66627;29.424;-98.496;2023-11-19T03:35:06;28;26;
77515;PMS5003;66627;29.424;-98.496;2023-11-19T03:37:31;36;31;
77515;PMS5003;66627;29.424;-98.496;2023-11-19T03:39:56;31;28;
77515;PMS5003;66627;29.424;-98.496;2023-11-19T03:42:21;36;33;
77515;PMS5003;66627;29.424;-98.496;2023-11-19T03:44:47;39;35;
77515;PMS5003;66627;29.424;-98.496;2023-11-19T03:47:13;33;30;
77515;PMS5003;66627;29.424;-98.496;2023-11-19T03:49:37;35;35;
77515;PMS5003;66627;29.424;-98.496;2023-11-19T03:52:05;32;32;
77515;PMS5003;66627;29.424;-98.496;2023-11-19T03:54:30;37;35;
77515;PMS5003;66627;29.424;-98.496;2023-11-19T03:56:54;38;35;
77515;PMS5003;66627;29.424;-98.496;2023-11-19T03:59:21;45;39;
77515;PMS5003;66627;29.424;-98.496;2023-11-19T04:01:45;44;40;
77515;PMS5003;66627;29.424;-98.496;2023-11-19T04:04:11;46;45;
77515;PMS5003;66627;29.424;-98.496;2023-11-19T04:06:37;55;48;
77515;PMS5003;66627;29.424;-98.496;2023-11-19T04:09:06;59;54;
77515;PMS5003;66627;29.424;-98.496;2023-11-19T04:11:28;66;58;
77515;PMS5003;66627;29.424;-98.496;2023-11-19T04:13:53;64;56;
77515;PMS5003;66627;29.424;-98.496;2023-11-19T04:16:18;50;48;
77515;PMS5003;66627;29.424;-98.496;2023-11-19T04:18:44;53;52;
77515;PMS5003;66627;29.424;-98.496;2023-11-19T04:21:10;52;50;
77515;PMS5003;66627;29.424;-98.496;2023-11-19T04:23:35;50;48;
77515;PMS5003;66627;29.424;-98.496;2023-11-19T04:26:02;49;46;
77515;PMS5003;66627;29.424;-98.496;2023-11-19T04:28:27;60;56;
77515;PMS5003;66627;29.424;-98.496;2023-11-19T04:30:53;57;53;
77515;PMS5003;66627;29.424;-98.496;2023-11-19T04:33:18;54;47;
77515;PMS5003;66627;29.424;-98.496;2023-11-19T04:35:43;50;50;
77515;PMS5003;66627;29.424;-98.496;2023-11-19T04:38:08;51;50;
77515;PMS5003;66627;29.424;-98.496;2023-11-19T04:40:33;63;57;
77515;PMS5003;66627;29.424;-98.496;2023-11-19T04:43:00;57;54;
77515;PMS5003;66627;29.424;-98.496;2023-11-19T04:45:25;56;56;
77515;PMS5003;66627;29.424;-98.496;2023-11-19T04:47:52;68;66;
77515;PMS5003;66627;29.424;-98.496;2023-11-19T04:50:16;67;64;
77515;PMS5003;66627;29.424;-98.496;2023-11-19T04:52:49;56;53;
77515;PMS5003;66627;29.424;-98.496;2023-11-19T04:55:08;55;49;
77515;PMS5003;66627;29.424;-98.496;2023-11-19T04:57:32;55;51;
77515;PMS5003;66627;29.424;-98.496;2023-11-19T04:59:58;55;51;
77515;PMS5003;66627;29.424;-98.496;2023-11-19T05:02:22;52;49;
77515;PMS5003;66627;29.424;-98.496;2023-11-19T05:04:49;53;53;
77515;PMS5003;66627;29.424;-98.496;2023-11-19T05:07:14;57;53;
77515;PMS5003;66627;29.424;-98.496;2023-11-19T05:09:39;60;58;
77515;PMS5003;66627;29.424;-98.496;2023-11-19T05:12:04;61;57;
77515;PMS5003;66627;29.424;-98.496;2023-11-19T05:14:30;61;58;
77515;PMS5003;66627;29.424;-98.496;2023-11-19T05:16:55;59;55;
77515;PMS5003;66627;29.424;-98.496;2023-11-19T05:19:21;59;51;
77515;PMS5003;66627;29.424;-98.496;2023-11-19T05:21:46;67;62;
77515;PMS5003;66627;29.424;-98.496;2023-11-19T05:24:12;54;52;
77515;PMS5003;66627;29.424;-98.496;2023-11-19T05:26:38;55;52;
77515;PMS5003;66627;29.424;-98.496;2023-11-19T05:29:03;54;51;
77515;PMS5003;66627;29.424;-98.496;2023-11-19T05:31:29;50;48;
77515;PMS5003;66627;29.424;-98.496;2023-11-19T05:33:53;54;51;
77515;PMS5003;66627;29.424;-98.496;2023-11-19T05:36:20;50;48;
77515;PMS5003;66627;29.424;-98.496;2023-11-19T05:38:45;52;49;
77515;PMS5003;66627;29.424;-98.496;2023-11-19T05:41:09;54;53;
77515;PMS5003;66627;29.424;-98.496;2023-11-19T05:43:37;53;50;
77515;PMS5003;66627;29.424;-98.496;2023-11-19T05:46:01;54;51;
77515;PMS5003;66627;29.424;-98.496;2023-11-19T05:48:27;48;45;
77515;PMS5003;66627;29.424;-98.496;2023-11-19T05:50:53;44;44;
77515;PMS5003;66627;29.424;-98.496;2023-11-19T05:53:17;48;42;
77515;PMS5003;66627;29.424;-98.496;2023-11-19T05:55:43;49;46;
77515;PMS5003;66627;29.424;-98.496;2023-11-19T05:58:07;47;47;
77515;PMS5003;66627;29.424;-98.496;2023-11-19T06:00:35;45;41;
77515;PMS5003;66627;29.424;-98.496;2023-11-19T06:03:00;47;45;
77515;PMS5003;66627;29.424;-98.496;2023-11-19T06:05:24;50;45;
77515;PMS5003;66627;29.424;-98.496;2023-11-19T06:07:49;51;50;
77515;PMS5003;66627;29.424;-98.496;2023-11-19T06:10:16;47;39;
77515;PMS5003;66627;29.424;-98.496;2023-11-19T06:12:41;41;37;
77515;PMS5003;66627;29.424;-98.496;2023-11-19T06:15:06;49;47;
77515;PMS5003;66627;29.424;-98.496;2023-11-19T06:17:31;54;52;
77515;PMS5003;66627;29.424;-98.496;2023-11-19T06:19:56;59;55;
77515;PMS5003;66627;29.424;-98.496;2023-11-19T06:22:21;53;49;
77515;PMS5003;66627;29.424;-98.496;2023-11-19T06:24:47;46;45;
77515;PMS5003;66627;29.424;-98.496;2023-11-19T06:27:12;54;52;
77515;PMS5003;66627;29.424;-98.496;2023-11-19T06:29:38;51;49;
77515;PMS5003;66627;29.424;-98.496;2023-11-19T06:32:04;58;50;
77515;PMS5003;66627;29.424;-98.496;2023-11-19T06:34:29;65;60;
77515;PMS5003;66627;29.424;-98.496;2023-11-19T06:36:54;56;51;
77515;PMS5003;66627;29.424;-98.496;2023-11-19T06:39:20;53;49;
77515;PMS5003;66627;29.424;-98.496;2023-11-19T06:41:46;48;46;
77515;PMS5003;66627;29.424;-98.496;2023-11-19T06:44:12;52;50;
77515;PMS5003;66627;29.424;-98.496;2023-11-19T06:46:37;63;58;
77515;PMS5003;66627;29.424;-98.496;2023-11-19T06:49:02;71;65;
77515;PMS5003;66627;29.424;-98.496;2023-11-19T06:51:30;74;73;
77515;PMS5003;66627;29.424;-98.496;2023-11-19T06:53:54;74;70;
77515;PMS5003;66627;29.424;-98.496;2023-11-19T06:56:19;70;63;
77515;PMS5003;66627;29.424;-98.496;2023-11-19T06:58:44;66;63;
77515;PMS5003;66627;29.424;-98.496;2023-11-19T07:01:08;70;66;
77515;PMS5003;66627;29.424;-98.496;2023-11-19T07:03:33;77;71;
77515;PMS5003;66627;29.424;-98.496;2023-11-19T07:05:59;70;66;
77515;PMS5003;66627;29.424;-98.496;2023-11-19T07:08:24;80;64;
77515;PMS5003;66627;29.424;-98.496;2023-11-19T07:10:49;73;66;
77515;PMS5003;66627;29.424;-98.496;2023-11-19T07:13:16;70;66;
77515;PMS5003;66627;29.424;-98.496;2023-11-19T07:15:41;71;65;
77515;PMS5003;66627;29.424;-98.496;2023-11-19T07:18:05;68;63;
77515;PMS5003;66627;29.424;-98.496;2023-11-19T07:20:32;66;61;
77515;PMS5003;66627;29.424;-98.496;2023-11-19T07:22:56;67;62;
77515;PMS5003;66627;29.424;-98.496;2023-11-19T07:25:21;61;58;
77515;PMS5003;66627;29.424;-98.496;2023-11-19T07:27:48;66;64;
77515;PMS5003;66627;29.424;-98.496;2023-11-19T07:30:13;66;61;
77515;PMS5003;66627;29.424;-98.496;2023-11-19T07:32:37;61;55;
77515;PMS5003;66627;29.424;-98.496;2023-11-19T07:35:02;66;58;
77515;PMS5003;66627;29.424;-98.496;2023-11-19T07:37:27;58;55;
77515;PMS5003;66627;29.424;-98.496;2023-11-19T07:39:52;60;57;
77515;PMS5003;66627;29.424;-98.496;2023-11-19T07:42:19;68;61;
77515;PMS5003;66627;29.424;-98.496;2023-11-19T07:44:44;61;56;
77515;PMS5003;66627;29.424;-98.496;2023-11-19T07:47:09;61;61;
77515;PMS5003;66627;29.424;-98.496;2023-11-19T07:49:35;64;57;
77515;PMS5003;66627;29.424;-98.496;2023-11-19T07:52:00;70;63;
77515;PMS5003;66627;29.424;-98.496;2023-11-19T07:54:26;65;60;
77515;PMS5003;66627;29.424;-98.496;2023-11-19T07:56:52;61;55;
77515;PMS5003;66627;29.424;-98.496;2023-11-19T07:59:17;58;57;
77515;PMS5003;66627;29.424;-98.496;2023-11-19T08:01:42;53;51;
77515;PMS5003;66627;29.424;-98.496;2023-11-19T08:04:07;55;54;
77515;PMS5003;66627;29.424;-98.496;2023-11-19T08:06:34;49;46;
77515;PMS5003;66627;29.424;-98.496;2023-11-19T08:08:57;60;55;
77515;PMS5003;66627;29.424;-98.496;2023-11-19T08:11:24;57;52;
77515;PMS5003;66627;29.424;-98.496;2023-11-19T08:13:51;52;48;
77515;PMS5003;66627;29.424;-98.496;2023-11-19T08:16:14;55;52;
77515;PMS5003;66627;29.424;-98.496;2023-11-19T08:18:41;53;48;
77515;PMS5003;66627;29.424;-98.496;2023-11-19T08:21:04;55;53;
77515;PMS5003;66627;29.424;-98.496;2023-11-19T08:23:32;54;51;
77515;PMS5003;66627;29.424;-98.496;2023-11-19T08:25:57;57;54;
77515;PMS5003;66627;29.424;-98.496;2023-11-19T08:28:22;52;52;
77515;PMS5003;66627;29.424;-98.496;2023-11-19T08:30:47;54;52;
77515;PMS5003;66627;29.424;-98.496;2023-11-19T08:33:13;46;44;
77515;PMS5003;66627;29.424;-98.496;2023-11-19T08:35:38;68;60;
77515;PMS5003;66627;29.424;-98.496;2023-11-19T08:38:04;62;58;
77515;PMS5003;66627;29.424;-98.496;2023-11-19T08:40:29;61;57;
77515;PMS5003;66627;29.424;-98.496;2023-11-19T08:42:55;57;55;
77515;PMS5003;66627;29.424;-98.496;2023-11-19T08:45:20;51;47;
77515;PMS5003;66627;29.424;-98.496;2023-11-19T08:47:47;55;50;
77515;PMS5003;66627;29.424;-98.496;2023-11-19T08:50:11;53;51;
77515;PMS5003;66627;29.424;-98.496;2023-11-19T08:52:36;50;50;
77515;PMS5003;66627;29.424;-98.496;2023-11-19T08:55:02;53;51;
77515;PMS5003;66627;29.424;-98.496;2023-11-19T08:57:27;44;43;
77515;PMS5003;66627;29.424;-98.496;2023-11-19T08:59:52;59;49;
77515;PMS5003;66627;29.424;-98.496;2023-11-19T09:02:19;53;49;
77515;PMS5003;66627;29.424;-98.496;2023-11-19T09:04:44;56;55;
77515;PMS5003;66627;29.424;-98.496;2023-11-19T09:07:09;54;51;
77515;PMS5003;66627;29.424;-98.496;2023-11-19T09:09:35;61;55;
77515;PMS5003;66627;29.424;-98.496;2023-11-19T09:12:00;52;48;
77515;PMS5003;66627;29.424;-98.496;2023-11-19T09:14:27;57;47;
77515;PMS5003;66627;29.424;-98.496;2023-11-19T09:16:50;47;47;
77515;PMS5003;66627;29.424;-98.496;2023-11-19T09:19:15;54;49;
77515;PMS5003;66627;29.424;-98.496;2023-11-19T09:21:42;50;45;
77515;PMS5003;66627;29.424;-98.496;2023-11-19T09:24:08;45;45;
77515;PMS5003;66627;29.424;-98.496;2023-11-19T09:26:37;56;54;
77515;PMS5003;66627;29.424;-98.496;2023-11-19T09:28:58;57;53;
77515;PMS5003;66627;29.424;-98.496;2023-11-19T09:31:24;46;46;
77515;PMS5003;66627;29.424;-98.496;2023-11-19T09:33:50;49;47;
77515;PMS5003;66627;29.424;-98.496;2023-11-19T09:36:14;50;47;
77515;PMS5003;66627;29.424;-98.496;2023-11-19T09:38:41;54;47;
77515;PMS5003;66627;29.424;-98.496;2023-11-19T09:41:06;54;49;
77515;PMS5003;66627;29.424;-98.496;2023-11-19T09:43:30;46;44;
77515;PMS5003;66627;29.424;-98.496;2023-11-19T09:45:56;58;52;
77515;PMS5003;66627;29.424;-98.496;2023-11-19T09:48:22;58;50;
77515;PMS5003;66627;29.424;-98.496;2023-11-19T09:50:47;50;47;
77515;PMS5003;66627;29.424;-98.496;2023-11-19T09:53:12;53;47;
77515;PMS5003;66627;29.424;-98.496;2023-11-19T09:55:39;50;47;
77515;PMS5003;66627;29.424;-98.496;2023-11-19T09:58:04;49;43;
77515;PMS5003;66627;29.424;-98.496;2023-11-19T10:00:28;51;47;
77515;PMS5003;66627;29.424;-98.496;2023-11-19T10:02:55;51;48;
77515;PMS5003;66627;29.424;-98.496;2023-11-19T10:05:20;54;51;
77515;PMS5003;66627;29.424;-98.496;2023-11-19T10:07:45;53;48;
77515;PMS5003;66627;29.424;-98.496;2023-11-19T10:10:11;53;47;
77515;PMS5003;66627;29.424;-98.496;2023-11-19T10:12:38;52;49;
77515;PMS5003;66627;29.424;-98.496;2023-11-19T10:15:02;55;48;
77515;PMS5003;66627;29.424;-98.496;2023-11-19T10:17:28;55;51;
77515;PMS5003;66627;29.424;-98.496;2023-11-19T10:19:52;45;45;
77515;PMS5003;66627;29.424;-98.496;2023-11-19T10:22:17;54;48;
77515;PMS5003;66627;29.424;-98.496;2023-11-19T10:24:45;56;49;
77515;PMS5003;66627;29.424;-98.496;2023-11-19T10:27:09;54;47;
77515;PMS5003;66627;29.424;-98.496;2023-11-19T10:29:38;49;44;
77515;PMS5003;66627;29.424;-98.496;2023-11-19T10:32:00;46;44;
77515;PMS5003;66627;29.424;-98.496;2023-11-19T10:34:25;58;52;
77515;PMS5003;66627;29.424;-98.496;2023-11-19T10:36:52;45;45;
77515;PMS5003;66627;29.424;-98.496;2023-11-19T10:39:16;56;51;
77515;PMS5003;66627;29.424;-98.496;2023-11-19T10:41:42;44;44;
77515;PMS5003;66627;29.424;-98.496;2023-11-19T10:44:07;50;49;
77515;PMS5003;66627;29.424;-98.496;2023-11-19T10:46:38;47;45;
77515;PMS5003;66627;29.424;-98.496;2023-11-19T10:48:59;56;52;
77515;PMS5003;66627;29.424;-98.496;2023-11-19T10:51:23;56;51;
77515;PMS5003;66627;29.424;-98.496;2023-11-19T10:53:49;49;46;
77515;PMS5003;66627;29.424;-98.496;2023-11-19T10:56:14;50;46;
77515;PMS5003;66627;29.424;-98.496;2023-11-19T10:58:42;57;49;
77515;PMS5003;66627;29.424;-98.496;2023-11-19T11:01:07;55;50;
77515;PMS5003;66627;29.424;-98.496;2023-11-19T11:03:31;48;47;
77515;PMS5003;66627;29.424;-98.496;2023-11-19T11:05:56;50;44;
77515;PMS5003;66627;29.424;-98.496;2023-11-19T11:08:20;52;50;
77515;PMS5003;66627;29.424;-98.496;2023-11-19T11:10:47;40;40;
77515;PMS5003;66627;29.424;-98.496;2023-11-19T11:13:11;50;46;
77515;PMS5003;66627;29.424;-98.496;2023-11-19T11:15:36;57;51;
77515;PMS5003;66627;29.424;-98.496;2023-11-19T11:18:01;45;40;
77515;PMS5003;66627;29.424;-98.496;2023-11-19T11:20:27;51;48;
77515;PMS5003;66627;29.424;-98.496;2023-11-19T11:22:59;44;42;
77515;PMS5003;66627;29.424;-98.496;2023-11-19T11:25:21;56;53;
77515;PMS5003;66627;29.424;-98.496;2023-11-19T11:30:10;53;46;
77515;PMS5003;66627;29.424;-98.496;2023-11-19T11:32:35;56;52;
77515;PMS5003;66627;29.424;-98.496;2023-11-19T11:35:03;53;50;
77515;PMS5003;66627;29.424;-98.496;2023-11-19T11:37:26;49;49;
77515;PMS5003;66627;29.424;-98.496;2023-11-19T11:39:49;50;45;
77515;PMS5003;66627;29.424;-98.496;2023-11-19T11:47:05;52;50;
77515;PMS5003;66627;29.424;-98.496;2023-11-19T11:49:31;52;48;
77515;PMS5003;66627;29.424;-98.496;2023-11-19T11:51:59;55;51;
77515;PMS5003;66627;29.424;-98.496;2023-11-19T12:01:38;51;50;
77515;PMS5003;66627;29.424;-98.496;2023-11-19T12:04:05;58;50;
77515;PMS5003;66627;29.424;-98.496;2023-11-19T12:06:32;56;50;
77515;PMS5003;66627;29.424;-98.496;2023-11-19T12:09:00;47;45;
77515;PMS5003;66627;29.424;-98.496;2023-11-19T12:11:20;46;40;
77515;PMS5003;66627;29.424;-98.496;2023-11-19T12:13:53;47;42;
77515;PMS5003;66627;29.424;-98.496;2023-11-19T12:16:12;49;47;
77515;PMS5003;66627;29.424;-98.496;2023-11-19T12:18:36;51;48;
77515;PMS5003;66627;29.424;-98.496;2023-11-19T12:21:01;48;45;
77515;PMS5003;66627;29.424;-98.496;2023-11-19T12:23:27;49;45;
77515;PMS5003;66627;29.424;-98.496;2023-11-19T12:25:52;61;51;
77515;PMS5003;66627;29.424;-98.496;2023-11-19T12:28:18;48;41;
77515;PMS5003;66627;29.424;-98.496;2023-11-19T12:30:43;46;40;
77515;PMS5003;66627;29.424;-98.496;2023-11-19T12:33:08;46;43;
77515;PMS5003;66627;29.424;-98.496;2023-11-19T12:35:34;56;49;
77515;PMS5003;66627;29.424;-98.496;2023-11-19T12:37:57;59;51;
77515;PMS5003;66627;29.424;-98.496;2023-11-19T12:40:24;62;52;
77515;PMS5003;66627;29.424;-98.496;2023-11-19T12:42:51;54;48;
77515;PMS5003;66627;29.424;-98.496;2023-11-19T12:45:15;53;49;
77515;PMS5003;66627;29.424;-98.496;2023-11-19T12:47:41;57;51;
77515;PMS5003;66627;29.424;-98.496;2023-11-19T12:50:06;50;48;
77515;PMS5003;66627;29.424;-98.496;2023-11-19T12:52:31;54;48;
77515;PMS5003;66627;29.424;-98.496;2023-11-19T12:54:58;44;41;
77515;PMS5003;66627;29.424;-98.496;2023-11-19T13:02:13;53;48;
77515;PMS5003;66627;29.424;-98.496;2023-11-19T13:04:40;53;50;
77515;PMS5003;66627;29.424;-98.496;2023-11-19T13:07:04;55;53;
77515;PMS5003;66627;29.424;-98.496;2023-11-19T13:09:31;57;50;
77515;PMS5003;66627;29.424;-98.496;2023-11-19T13:11:56;53;47;
77515;PMS5003;66627;29.424;-98.496;2023-11-19T13:14:21;55;49;
77515;PMS5003;66627;29.424;-98.496;2023-11-19T13:16:47;54;51;
77515;PMS5003;66627;29.424;-98.496;2023-11-19T13:19:16;57;52;
77515;PMS5003;66627;29.424;-98.496;2023-11-19T13:21:38;58;47;
77515;PMS5003;66627;29.424;-98.496;2023-11-19T13:24:05;58;53;
77515;PMS5003;66627;29.424;-98.496;2023-11-19T13:26:30;55;50;
77515;PMS5003;66627;29.424;-98.496;2023-11-19T13:28:56;59;52;
77515;PMS5003;66627;29.424;-98.496;2023-11-19T13:31:21;53;52;
77515;PMS5003;66627;29.424;-98.496;2023-11-19T13:33:46;46;41;
77515;PMS5003;66627;29.424;-98.496;2023-11-19T13:36:13;51;48;
77515;PMS5003;66627;29.424;-98.496;2023-11-19T13:38:37;55;49;
77515;PMS5003;66627;29.424;-98.496;2023-11-19T13:41:04;61;53;
77515;PMS5003;66627;29.424;-98.496;2023-11-19T13:43:28;58;51;
77515;PMS5003;66627;29.424;-98.496;2023-11-19T13:45:55;53;51;
77515;PMS5003;66627;29.424;-98.496;2023-11-19T13:48:19;55;48;
77515;PMS5003;66627;29.424;-98.496;2023-11-19T13:50:44;58;56;
77515;PMS5003;66627;29.424;-98.496;2023-11-19T13:53:13;54;52;
77515;PMS5003;66627;29.424;-98.496;2023-11-19T13:55:36;50;49;
77515;PMS5003;66627;29.424;-98.496;2023-11-19T13:58:01;59;52;
77515;PMS5003;66627;29.424;-98.496;2023-11-19T14:00:27;52;47;
77515;PMS5003;66627;29.424;-98.496;2023-11-19T14:02:52;52;51;
77515;PMS5003;66627;29.424;-98.496;2023-11-19T14:05:17;64;56;
77515;PMS5003;66627;29.424;-98.496;2023-11-19T14:07:43;62;53;
77515;PMS5003;66627;29.424;-98.496;2023-11-19T14:10:08;58;48;
77515;PMS5003;66627;29.424;-98.496;2023-11-19T14:12:35;55;49;
77515;PMS5003;66627;29.424;-98.496;2023-11-19T14:14:59;57;51;
77515;PMS5003;66627;29.424;-98.496;2023-11-19T14:17:26;56;51;
77515;PMS5003;66627;29.424;-98.496;2023-11-19T14:19:50;52;48;
77515;PMS5003;66627;29.424;-98.496;2023-11-19T14:22:15;59;54;
77515;PMS5003;66627;29.424;-98.496;2023-11-19T14:24:40;57;55;
77515;PMS5003;66627;29.424;-98.496;2023-11-19T14:27:07;54;51;
77515;PMS5003;66627;29.424;-98.496;2023-11-19T14:29:33;62;53;
77515;PMS5003;66627;29.424;-98.496;2023-11-19T14:31:59;57;50;
77515;PMS5003;66627;29.424;-98.496;2023-11-19T14:34:23;57;47;
77515;PMS5003;66627;29.424;-98.496;2023-11-19T14:36:49;52;45;
77515;PMS5003;66627;29.424;-98.496;2023-11-19T14:39:14;63;56;
77515;PMS5003;66627;29.424;-98.496;2023-11-19T14:41:40;61;52;
77515;PMS5003;66627;29.424;-98.496;2023-11-19T14:44:05;59;55;
77515;PMS5003;66627;29.424;-98.496;2023-11-19T14:46:31;58;52;
77515;PMS5003;66627;29.424;-98.496;2023-11-19T14:48:56;63;54;
77515;PMS5003;66627;29.424;-98.496;2023-11-19T14:51:21;64;56;
77515;PMS5003;66627;29.424;-98.496;2023-11-19T14:53:48;62;54;
77515;PMS5003;66627;29.424;-98.496;2023-11-19T14:56:12;66;56;
77515;PMS5003;66627;29.424;-98.496;2023-11-19T14:58:39;62;56;
77515;PMS5003;66627;29.424;-98.496;2023-11-19T15:01:04;55;52;
77515;PMS5003;66627;29.424;-98.496;2023-11-19T15:03:29;68;52;
77515;PMS5003;66627;29.424;-98.496;2023-11-19T15:05:54;63;58;
77515;PMS5003;66627;29.424;-98.496;2023-11-19T15:08:22;61;50;
77515;PMS5003;66627;29.424;-98.496;2023-11-19T15:10:45;66;57;
77515;PMS5003;66627;29.424;-98.496;2023-11-19T15:13:11;53;52;
77515;PMS5003;66627;29.424;-98.496;2023-11-19T15:15:36;62;57;
77515;PMS5003;66627;29.424;-98.496;2023-11-19T15:18:03;58;53;
77515;PMS5003;66627;29.424;-98.496;2023-11-19T15:20:28;56;50;
77515;PMS5003;66627;29.424;-98.496;2023-11-19T15:22:53;61;55;
77515;PMS5003;66627;29.424;-98.496;2023-11-19T15:25:18;53;49;
77515;PMS5003;66627;29.424;-98.496;2023-11-19T15:27:44;52;51;
77515;PMS5003;66627;29.424;-98.496;2023-11-19T15:30:12;58;53;
77515;PMS5003;66627;29.424;-98.496;2023-11-19T15:32:36;58;52;
77515;PMS5003;66627;29.424;-98.496;2023-11-19T15:35:01;53;51;
77515;PMS5003;66627;29.424;-98.496;2023-11-19T15:37:28;59;49;
77515;PMS5003;66627;29.424;-98.496;2023-11-19T15:39:53;62;48;
77515;PMS5003;66627;29.424;-98.496;2023-11-19T15:42:18;65;57;
77515;PMS5003;66627;29.424;-98.496;2023-11-19T15:44:45;59;49;
77515;PMS5003;66627;29.424;-98.496;2023-11-19T15:47:10;69;56;
77515;PMS5003;66627;29.424;-98.496;2023-11-19T15:49:36;54;52;
77515;PMS5003;66627;29.424;-98.496;2023-11-19T15:52:01;48;47;
77515;PMS5003;66627;29.424;-98.496;2023-11-19T15:54:27;51;48;